createdAt,value
2023-07-05T00:01:32.131Z,5.28
2023-07-05T00:04:00.061Z,10.38
2023-07-05T00:06:27.891Z,7.13
2023-07-05T00:08:55.454Z,6.72
2023-07-05T00:11:23.119Z,9.13
2023-07-05T00:13:50.816Z,10.75
2023-07-05T00:16:20.293Z,10.45
2023-07-05T00:18:48.026Z,9.85
2023-07-05T00:21:16.019Z,5.10
2023-07-05T00:23:46.488Z,9.32
2023-07-05T00:26:15.181Z,10.48
2023-07-05T00:28:42.836Z,10.45
2023-07-05T00:31:10.421Z,6.38
2023-07-05T00:33:39.357Z,9.38
2023-07-05T00:36:06.974Z,12.82
2023-07-05T00:38:34.783Z,12.25
2023-07-05T00:41:02.499Z,8.85
2023-07-05T00:43:30.374Z,12.23
2023-07-05T00:46:01.535Z,7.38
2023-07-05T00:48:36.433Z,8.93
2023-07-05T00:51:10.070Z,8.95
2023-07-05T00:53:39.081Z,12.48
2023-07-05T00:56:12.002Z,6.47
2023-07-05T00:58:41.452Z,8.15
2023-07-05T01:01:09.118Z,14.43
2023-07-05T01:03:36.900Z,10.98
2023-07-05T01:06:07.411Z,8.30
2023-07-05T01:08:35.200Z,6.88
2023-07-05T01:11:10.568Z,9.02
2023-07-05T01:13:42.769Z,9.18
2023-07-05T01:16:22.932Z,8.75
2023-07-05T01:19:00.149Z,11.25
2023-07-05T01:21:33.445Z,7.95
2023-07-05T01:24:37.995Z,9.15
2023-07-05T01:27:34.524Z,6.10
2023-07-05T01:30:21.336Z,10.32
2023-07-05T01:32:55.612Z,8.23
2023-07-05T01:35:26.984Z,8.05
2023-07-05T01:37:55.040Z,8.48
2023-07-05T01:41:04.496Z,11.10
2023-07-05T01:43:34.075Z,20.60
2023-07-05T01:46:22.588Z,7.20
2023-07-05T01:49:22.063Z,12.15
2023-07-05T01:51:55.045Z,9.77
2023-07-05T01:54:28.612Z,9.27
2023-07-05T01:57:00.569Z,8.30
2023-07-05T01:59:32.414Z,9.55
2023-07-05T02:02:01.181Z,10.30
2023-07-05T02:04:30.805Z,10.40
2023-07-05T02:06:58.719Z,12.35
2023-07-05T02:09:27.121Z,7.45
2023-07-05T02:11:55.415Z,10.07
2023-07-05T02:14:23.681Z,8.90
2023-07-05T02:16:51.920Z,15.23
2023-07-05T02:19:20.193Z,15.10
2023-07-05T02:21:49.690Z,8.63
2023-07-05T02:24:17.276Z,10.13
2023-07-05T02:26:44.812Z,8.95
2023-07-05T02:29:12.391Z,14.95
2023-07-05T02:31:40.019Z,13.73
2023-07-05T02:34:07.675Z,9.23
2023-07-05T02:36:36.508Z,8.45
2023-07-05T02:39:05.422Z,13.60
2023-07-05T02:41:33.250Z,11.55
2023-07-05T02:44:00.855Z,9.80
2023-07-05T02:46:30.596Z,12.75
2023-07-05T02:48:58.797Z,8.93
2023-07-05T02:51:28.169Z,10.90
2023-07-05T02:53:55.897Z,7.82
2023-07-05T02:56:25.150Z,10.00
2023-07-05T02:58:52.733Z,10.20
2023-07-05T03:01:21.218Z,8.15
2023-07-05T03:03:48.889Z,10.93
2023-07-05T03:06:16.490Z,12.40
2023-07-05T03:08:44.151Z,11.25
2023-07-05T03:11:12.266Z,10.07
2023-07-05T03:13:41.203Z,10.18
2023-07-05T03:16:08.988Z,10.45
2023-07-05T03:18:36.625Z,11.50
2023-07-05T03:21:04.326Z,12.40
2023-07-05T03:23:31.900Z,8.73
2023-07-05T03:26:00.724Z,10.32
2023-07-05T03:28:31.134Z,11.50
2023-07-05T03:31:02.173Z,8.98
2023-07-05T03:33:30.795Z,10.18
2023-07-05T03:35:59.223Z,10.73
2023-07-05T03:38:28.359Z,10.45
2023-07-05T03:41:00.523Z,8.88
2023-07-05T03:43:28.733Z,10.63
2023-07-05T03:45:56.462Z,7.35
2023-07-05T03:48:25.453Z,12.75
2023-07-05T03:50:56.633Z,8.77
2023-07-05T03:53:24.340Z,9.93
2023-07-05T03:55:52.088Z,13.73
2023-07-05T03:58:19.860Z,12.02
2023-07-05T04:00:47.844Z,13.75
2023-07-05T04:03:15.795Z,6.60
2023-07-05T04:05:45.265Z,11.52
2023-07-05T04:08:13.052Z,13.43
2023-07-05T04:10:48.383Z,13.65
2023-07-05T04:13:15.991Z,10.30
2023-07-05T04:15:43.628Z,11.00
2023-07-05T04:18:11.201Z,9.85
2023-07-05T04:20:39.363Z,12.10
2023-07-05T04:23:08.235Z,12.98
2023-07-05T04:25:35.800Z,11.13
2023-07-05T04:28:03.340Z,12.02
2023-07-05T04:30:30.907Z,12.10
2023-07-05T04:32:58.886Z,9.65
2023-07-05T04:35:26.486Z,9.20
2023-07-05T04:37:54.097Z,14.45
2023-07-05T04:40:24.067Z,12.95
2023-07-05T04:42:51.650Z,12.60
2023-07-05T04:45:19.228Z,11.20
2023-07-05T04:47:46.824Z,14.57
2023-07-05T04:50:14.414Z,16.20
2023-07-05T04:52:41.974Z,13.02
2023-07-05T04:55:11.276Z,11.38
2023-07-05T04:57:43.407Z,18.00
2023-07-05T05:00:12.825Z,12.88
2023-07-05T05:02:40.494Z,10.82
2023-07-05T05:05:09.296Z,12.02
2023-07-05T05:07:37.054Z,13.25
2023-07-05T05:10:05.409Z,10.88
2023-07-05T05:12:32.992Z,12.80
2023-07-05T05:15:01.881Z,13.57
2023-07-05T05:17:29.502Z,15.55
2023-07-05T05:19:57.114Z,10.00
2023-07-05T05:22:24.728Z,15.20
2023-07-05T05:24:52.305Z,14.65
2023-07-05T05:27:20.023Z,11.38
2023-07-05T05:29:47.656Z,13.07
2023-07-05T05:32:16.540Z,15.65
2023-07-05T05:34:44.130Z,10.80
2023-07-05T05:37:11.702Z,12.90
2023-07-05T05:39:39.434Z,12.60
2023-07-05T05:42:07.036Z,14.02
2023-07-05T05:44:34.592Z,14.10
2023-07-05T05:47:02.180Z,14.70
2023-07-05T05:49:31.068Z,11.68
2023-07-05T05:51:58.851Z,15.85
2023-07-05T05:54:26.408Z,12.23
2023-07-05T05:56:54.047Z,11.30
2023-07-05T05:59:21.619Z,12.88
2023-07-05T06:01:49.222Z,9.95
2023-07-05T06:04:16.892Z,12.20
2023-07-05T06:06:45.842Z,14.48
2023-07-05T06:09:13.961Z,9.10
2023-07-05T06:11:41.510Z,13.40
2023-07-05T06:14:10.063Z,11.68
2023-07-05T06:16:37.964Z,12.07
2023-07-05T06:19:05.838Z,12.02
2023-07-05T06:21:33.402Z,15.70
2023-07-05T06:24:02.720Z,10.70
2023-07-05T06:26:30.331Z,9.02
2023-07-05T06:28:57.895Z,12.82
2023-07-05T06:31:25.520Z,11.77
2023-07-05T06:33:53.162Z,14.88
2023-07-05T06:36:20.682Z,11.15
2023-07-05T06:38:48.236Z,14.38
2023-07-05T06:41:17.096Z,12.43
2023-07-05T06:43:44.963Z,9.73
2023-07-05T06:46:12.662Z,11.88
2023-07-05T06:48:40.251Z,9.52
2023-07-05T06:51:07.834Z,11.50
2023-07-05T06:53:48.197Z,10.18
2023-07-05T06:56:18.650Z,8.93
2023-07-05T06:58:46.236Z,8.32
2023-07-05T07:01:13.916Z,7.43
2023-07-05T07:03:41.570Z,6.35
2023-07-05T07:06:09.226Z,6.13
2023-07-05T07:08:39.615Z,7.00
2023-07-05T07:11:08.319Z,5.80
2023-07-05T07:13:38.818Z,6.78
2023-07-05T07:16:08.876Z,6.05
2023-07-05T07:18:37.757Z,8.07
2023-07-05T07:21:07.268Z,6.15
2023-07-05T07:23:34.956Z,8.80
2023-07-05T07:26:03.668Z,5.18
2023-07-05T07:28:31.222Z,6.90
2023-07-05T07:31:00.175Z,7.63
2023-07-05T07:33:28.123Z,4.82
2023-07-05T07:35:55.731Z,5.63
2023-07-05T07:38:23.394Z,6.97
2023-07-05T07:40:51.002Z,5.05
2023-07-05T07:43:18.666Z,6.07
2023-07-05T07:45:46.269Z,10.40
2023-07-05T07:48:15.324Z,5.45
2023-07-05T07:50:50.165Z,6.22
2023-07-05T07:53:18.027Z,4.32
2023-07-05T07:55:45.582Z,6.38
2023-07-05T07:58:13.371Z,3.60
2023-07-05T08:00:40.981Z,5.40
2023-07-05T08:03:12.751Z,4.13
2023-07-05T08:05:42.033Z,5.30
2023-07-05T08:08:09.796Z,6.25
2023-07-05T08:10:37.913Z,6.35
2023-07-05T08:13:05.504Z,3.67
2023-07-05T08:15:33.550Z,3.33
2023-07-05T08:18:01.152Z,5.25
2023-07-05T08:20:28.737Z,7.43
2023-07-05T08:22:57.667Z,6.13
2023-07-05T08:25:25.456Z,6.30
2023-07-05T08:27:53.014Z,6.05
2023-07-05T08:30:20.920Z,5.97
2023-07-05T08:32:48.484Z,5.95
2023-07-05T08:35:16.168Z,5.45
2023-07-05T08:37:50.539Z,3.58
2023-07-05T08:40:19.849Z,4.15
2023-07-05T08:42:53.857Z,5.25
2023-07-05T08:45:24.498Z,4.65
2023-07-05T08:47:54.260Z,5.30
2023-07-05T08:50:31.909Z,3.55
2023-07-05T08:53:06.518Z,4.25
2023-07-05T08:55:46.655Z,5.13
2023-07-05T08:58:16.438Z,6.03
2023-07-05T09:00:48.356Z,4.80
2023-07-05T09:03:16.628Z,3.83
2023-07-05T09:05:49.099Z,3.65
2023-07-05T09:08:22.781Z,6.18
2023-07-05T09:10:55.152Z,4.60
2023-07-05T09:13:25.313Z,4.65
2023-07-05T09:15:58.926Z,5.97
2023-07-05T09:18:33.592Z,5.07
2023-07-05T09:21:10.244Z,2.83
2023-07-05T09:23:40.269Z,3.95
2023-07-05T09:26:25.228Z,3.72
2023-07-05T09:29:07.267Z,3.97
2023-07-05T09:31:36.543Z,3.72
2023-07-05T09:34:18.832Z,3.88
2023-07-05T09:39:24.188Z,5.45
2023-07-05T09:41:54.379Z,2.53
2023-07-05T09:44:22.632Z,2.58
2023-07-05T09:46:50.783Z,3.83
2023-07-05T09:49:19.421Z,5.13
2023-07-05T09:51:47.385Z,2.28
2023-07-05T09:54:20.603Z,6.95
2023-07-05T09:57:00.729Z,3.25
2023-07-05T09:59:28.356Z,3.70
2023-07-05T10:01:58.995Z,3.10
2023-07-05T10:04:28.450Z,3.72
2023-07-05T10:06:56.807Z,2.75
2023-07-05T10:09:26.302Z,3.15
2023-07-05T10:11:58.944Z,3.25
2023-07-05T10:14:29.819Z,2.30
2023-07-05T10:16:59.580Z,2.45
2023-07-05T10:19:33.240Z,3.85
2023-07-05T10:22:08.414Z,4.70
2023-07-05T10:24:42.943Z,3.47
2023-07-05T10:27:20.858Z,3.47
2023-07-05T10:29:50.958Z,3.88
2023-07-05T10:32:20.378Z,4.88
2023-07-05T10:34:51.790Z,2.88
2023-07-05T10:37:30.902Z,3.60
2023-07-05T10:39:58.790Z,2.33
2023-07-05T10:42:27.104Z,3.58
2023-07-05T10:44:56.190Z,4.05
2023-07-05T10:47:23.813Z,6.25
2023-07-05T10:49:53.357Z,1.92
2023-07-05T10:52:22.099Z,2.45
2023-07-05T10:54:52.524Z,2.25
2023-07-05T10:57:25.407Z,2.17
2023-07-05T10:59:54.580Z,5.88
2023-07-05T11:02:35.488Z,2.83
2023-07-05T11:05:03.722Z,2.53
2023-07-05T11:07:33.631Z,3.15
2023-07-05T11:10:01.223Z,5.45
2023-07-05T11:12:30.415Z,3.17
2023-07-05T11:14:59.814Z,4.95
2023-07-05T11:17:32.469Z,3.65
2023-07-05T11:20:00.134Z,2.80
2023-07-05T11:22:47.216Z,3.47
2023-07-05T11:25:17.952Z,5.53
2023-07-05T11:27:52.261Z,5.90
2023-07-05T11:30:39.547Z,4.22
2023-07-05T11:33:18.157Z,3.17
2023-07-05T11:35:47.877Z,3.50
2023-07-05T11:39:07.042Z,1.95
2023-07-05T11:41:38.300Z,1.95
2023-07-05T11:44:07.087Z,2.10
2023-07-05T11:46:39.660Z,1.77
2023-07-05T11:49:29.956Z,4.57
2023-07-05T11:52:00.526Z,2.97
2023-07-05T11:54:34.498Z,6.22
2023-07-05T11:57:03.938Z,4.82
2023-07-05T11:59:35.348Z,6.57
2023-07-05T12:02:08.617Z,2.92
2023-07-05T12:04:40.221Z,2.30
2023-07-05T12:07:08.080Z,4.97
2023-07-05T12:09:37.552Z,3.80
2023-07-05T12:12:06.945Z,5.10
2023-07-05T12:14:34.613Z,3.88
2023-07-05T12:17:02.414Z,1.77
2023-07-05T12:19:31.954Z,1.88
2023-07-05T12:22:03.591Z,2.90
2023-07-05T12:24:38.097Z,1.67
2023-07-05T12:27:06.929Z,3.03
2023-07-05T12:29:34.465Z,1.25
2023-07-05T12:32:08.765Z,1.50
2023-07-05T12:34:36.382Z,1.73
2023-07-05T12:37:05.316Z,1.20
2023-07-05T12:39:33.073Z,2.60
2023-07-05T12:42:03.880Z,3.70
2023-07-05T12:44:32.163Z,1.77
2023-07-05T12:47:12.887Z,1.17
2023-07-05T12:49:40.807Z,1.52
2023-07-05T12:52:20.373Z,1.67
2023-07-05T12:54:48.154Z,2.05
2023-07-05T12:57:21.994Z,2.72
2023-07-05T13:00:00.283Z,3.08
2023-07-05T13:02:33.118Z,2.85
2023-07-05T13:05:01.642Z,0.70
2023-07-05T13:07:33.573Z,3.22
2023-07-05T13:10:02.975Z,5.15
2023-07-05T13:12:46.012Z,3.05
2023-07-05T13:15:13.691Z,1.20
2023-07-05T13:17:41.755Z,3.70
2023-07-05T13:20:28.915Z,3.40
2023-07-05T13:22:59.186Z,4.63
2023-07-05T13:25:28.902Z,2.17
2023-07-05T13:27:58.003Z,1.17
2023-07-05T13:30:25.795Z,1.65
2023-07-05T13:32:54.832Z,1.58
2023-07-05T13:35:23.101Z,5.35
2023-07-05T13:37:51.788Z,3.67
2023-07-05T13:40:22.122Z,1.38
2023-07-05T13:42:50.411Z,1.00
2023-07-05T13:45:20.413Z,5.32
2023-07-05T13:47:49.021Z,2.65
2023-07-05T13:50:16.846Z,4.35
2023-07-05T13:52:46.129Z,1.60
2023-07-05T13:55:18.174Z,1.98
2023-07-05T13:57:57.817Z,5.72
2023-07-05T14:00:28.486Z,3.15
2023-07-05T14:02:56.429Z,1.38
2023-07-05T14:05:28.101Z,4.28
2023-07-05T14:07:56.917Z,7.70
2023-07-05T14:10:26.417Z,2.67
2023-07-05T14:12:54.120Z,1.52
2023-07-05T14:15:29.381Z,3.28
2023-07-05T14:17:57.004Z,7.57
2023-07-05T14:20:25.306Z,3.67
2023-07-05T14:22:52.852Z,3.28
2023-07-05T14:25:22.819Z,3.80
2023-07-05T14:27:50.833Z,2.42
2023-07-05T14:30:20.207Z,4.63
2023-07-05T14:32:49.636Z,2.00
2023-07-05T14:35:19.654Z,3.83
2023-07-05T14:37:48.701Z,5.32
2023-07-05T14:40:17.432Z,2.65
2023-07-05T14:42:45.174Z,2.90
2023-07-05T14:45:18.948Z,2.83
2023-07-05T14:47:53.928Z,5.07
2023-07-05T14:50:21.735Z,7.20
2023-07-05T14:52:49.635Z,3.90
2023-07-05T14:55:19.225Z,5.05
2023-07-05T14:57:46.886Z,2.40
2023-07-05T15:00:15.407Z,2.75
2023-07-05T15:02:45.064Z,2.38
2023-07-05T15:05:13.957Z,2.33
2023-07-05T15:07:41.533Z,1.02
2023-07-05T15:10:10.680Z,2.42
2023-07-05T15:12:42.068Z,2.15
2023-07-05T15:15:17.939Z,2.30
2023-07-05T15:17:45.618Z,2.92
2023-07-05T15:20:16.320Z,3.15
2023-07-05T15:22:45.524Z,3.25
2023-07-05T15:25:13.688Z,3.65
2023-07-05T15:27:41.373Z,2.40
2023-07-05T15:30:10.532Z,2.38
2023-07-05T15:32:39.673Z,7.63
2023-07-05T15:35:09.258Z,3.33
2023-07-05T15:37:38.313Z,6.07
2023-07-05T15:40:07.883Z,2.80
2023-07-05T15:42:35.631Z,3.35
2023-07-05T15:45:03.205Z,4.57
2023-07-05T15:47:30.925Z,3.90
2023-07-05T15:49:58.571Z,5.57
2023-07-05T15:52:26.317Z,3.60
2023-07-05T15:54:55.556Z,4.53
2023-07-05T15:57:23.391Z,3.25
2023-07-05T15:59:58.785Z,2.30
2023-07-05T16:02:28.539Z,4.65
2023-07-05T16:04:56.446Z,2.95
2023-07-05T16:07:25.367Z,3.08
2023-07-05T16:09:55.186Z,4.70
2023-07-05T16:12:24.569Z,3.53
2023-07-05T16:14:52.141Z,4.20
2023-07-05T16:17:19.898Z,4.75
2023-07-05T16:19:47.526Z,4.68
2023-07-05T16:22:15.161Z,1.40
2023-07-05T16:24:42.774Z,1.50
2023-07-05T16:27:10.581Z,2.40
2023-07-05T16:29:39.540Z,3.78
2023-07-05T16:32:07.865Z,2.47
2023-07-05T16:34:35.664Z,5.38
2023-07-05T16:37:03.294Z,2.00
2023-07-05T16:39:30.838Z,8.13
2023-07-05T16:41:58.388Z,3.20
2023-07-05T16:44:27.484Z,3.55
2023-07-05T16:46:57.070Z,3.25
2023-07-05T16:49:24.844Z,2.47
2023-07-05T16:51:53.164Z,7.93
2023-07-05T16:54:20.775Z,5.38
2023-07-05T16:56:48.353Z,5.55
2023-07-05T16:59:16.044Z,3.55
2023-07-05T17:01:44.230Z,4.32
2023-07-05T17:04:13.393Z,3.58
2023-07-05T17:06:40.995Z,3.33
2023-07-05T17:09:08.543Z,3.53
2023-07-05T17:11:36.092Z,2.42
2023-07-05T17:14:03.764Z,2.20
2023-07-05T17:16:31.492Z,4.22
2023-07-05T17:18:59.093Z,4.93
2023-07-05T17:21:28.652Z,5.13
2023-07-05T17:23:56.263Z,3.28
2023-07-05T17:26:23.810Z,4.72
2023-07-05T17:28:51.374Z,6.57
2023-07-05T17:31:21.716Z,3.88
2023-07-05T17:33:50.063Z,6.78
2023-07-05T17:36:20.721Z,4.70
2023-07-05T17:38:50.458Z,3.97
2023-07-05T17:41:18.780Z,6.85
2023-07-05T17:43:47.165Z,3.75
2023-07-05T17:46:20.888Z,4.75
2023-07-05T17:48:48.940Z,4.95
2023-07-05T17:51:16.732Z,7.10
2023-07-05T17:53:44.312Z,5.10
2023-07-05T17:56:15.168Z,3.17
2023-07-05T17:58:42.887Z,6.55
2023-07-05T18:01:13.318Z,6.90
2023-07-05T18:03:42.264Z,3.53
2023-07-05T18:06:12.162Z,5.47
2023-07-05T18:08:40.867Z,5.53
2023-07-05T18:11:09.538Z,4.80
2023-07-05T18:13:39.682Z,3.35
2023-07-05T18:16:10.138Z,7.40
2023-07-05T18:18:38.141Z,4.40
2023-07-05T18:21:08.446Z,2.72
2023-07-05T18:23:38.181Z,3.80
2023-07-05T18:26:08.040Z,4.28
2023-07-05T18:28:36.321Z,3.65
2023-07-05T18:31:06.249Z,6.75
2023-07-05T18:33:36.206Z,4.13
2023-07-05T18:36:05.374Z,6.18
2023-07-05T18:38:33.615Z,2.30
2023-07-05T18:41:05.632Z,5.03
2023-07-05T18:46:01.342Z,5.13
2023-07-05T18:48:31.296Z,3.22
2023-07-05T18:51:00.069Z,5.28
2023-07-05T18:53:30.059Z,4.30
2023-07-05T18:55:58.938Z,8.15
2023-07-05T18:58:27.008Z,5.93
2023-07-05T19:00:58.561Z,6.18
2023-07-05T19:03:27.276Z,4.75
2023-07-05T19:06:01.864Z,7.00
2023-07-05T19:08:29.869Z,3.75
2023-07-05T19:10:59.787Z,4.18
2023-07-05T19:13:27.677Z,5.28
2023-07-05T19:15:55.577Z,4.20
2023-07-05T19:18:23.679Z,3.25
2023-07-05T19:20:51.385Z,4.03
2023-07-05T19:23:20.297Z,2.92
2023-07-05T19:25:48.032Z,4.75
2023-07-05T19:28:16.149Z,3.90
2023-07-05T19:30:43.954Z,6.18
2023-07-05T19:33:11.601Z,4.78
2023-07-05T19:35:42.462Z,3.50
2023-07-05T19:38:10.587Z,5.35
2023-07-05T19:40:39.956Z,4.97
2023-07-05T19:43:07.647Z,5.72
2023-07-05T19:45:35.709Z,5.00
2023-07-05T19:48:03.676Z,5.97
2023-07-05T19:50:34.405Z,3.33
2023-07-05T19:53:02.580Z,4.18
2023-07-05T19:55:33.398Z,4.22
2023-07-05T19:58:04.623Z,4.25
2023-07-05T20:00:33.976Z,2.73
2023-07-05T20:03:02.688Z,6.47
2023-07-05T20:05:33.566Z,6.82
2023-07-05T20:08:01.399Z,6.28
2023-07-05T20:10:29.342Z,6.80
2023-07-05T20:13:00.010Z,3.95
2023-07-05T20:15:33.146Z,4.80
2023-07-05T20:18:01.165Z,4.07
2023-07-05T20:20:29.292Z,4.60
2023-07-05T20:22:56.864Z,2.65
2023-07-05T20:25:25.197Z,4.30
2023-07-05T20:27:55.940Z,3.50
2023-07-05T20:30:25.635Z,6.82
2023-07-05T20:32:54.607Z,7.95
2023-07-05T20:35:22.216Z,6.78
2023-07-05T20:37:59.793Z,4.03
2023-07-05T20:40:31.287Z,4.15
2023-07-05T20:43:00.645Z,4.50
2023-07-05T20:45:28.791Z,3.55
2023-07-05T20:47:57.747Z,4.55
2023-07-05T20:50:25.513Z,4.07
2023-07-05T20:52:53.296Z,4.65
2023-07-05T20:55:21.062Z,4.47
2023-07-05T20:57:48.827Z,5.50
2023-07-05T21:00:18.124Z,4.03
2023-07-05T21:02:45.867Z,4.68
2023-07-05T21:05:15.622Z,4.75
2023-07-05T21:07:43.758Z,4.05
2023-07-05T21:10:11.869Z,6.28
2023-07-05T21:12:39.428Z,4.40
2023-07-05T21:15:09.028Z,4.82
2023-07-05T21:17:38.235Z,4.68
2023-07-05T21:20:10.512Z,4.43
2023-07-05T21:25:08.558Z,4.90
2023-07-05T21:27:36.539Z,3.85
2023-07-05T21:30:04.729Z,5.72
2023-07-05T21:32:32.358Z,3.45
2023-07-05T21:34:59.981Z,5.43
2023-07-05T21:37:27.607Z,3.92
2023-07-05T21:39:56.862Z,4.93
2023-07-05T21:42:24.540Z,2.88
2023-07-05T21:44:52.131Z,4.00
2023-07-05T21:47:19.741Z,5.82
2023-07-05T21:49:47.710Z,5.05
2023-07-05T21:52:17.003Z,3.75
2023-07-05T21:54:44.967Z,4.40
2023-07-05T21:57:15.185Z,4.93
2023-07-05T21:59:42.925Z,2.72
2023-07-05T22:02:10.533Z,3.10
2023-07-05T22:04:38.337Z,3.72
2023-07-05T22:07:10.960Z,2.38
2023-07-05T22:09:39.540Z,3.58
2023-07-05T22:12:07.986Z,5.82
2023-07-05T22:14:38.117Z,4.10
2023-07-05T22:17:08.591Z,3.22
2023-07-05T22:19:36.198Z,3.55
2023-07-05T22:22:05.705Z,3.28
2023-07-05T22:24:33.618Z,2.95
2023-07-05T22:27:01.704Z,3.45
2023-07-05T22:29:29.289Z,2.53
2023-07-05T22:31:58.151Z,4.00
2023-07-05T22:34:26.166Z,2.28
2023-07-05T22:36:53.845Z,3.40
2023-07-05T22:39:21.459Z,3.83
2023-07-05T22:41:48.999Z,2.75
2023-07-05T22:44:16.603Z,2.85
2023-07-05T22:46:44.212Z,6.95
2023-07-05T22:49:13.159Z,3.53
2023-07-05T22:51:40.886Z,4.50
2023-07-05T22:54:08.924Z,3.08
2023-07-05T22:56:36.529Z,2.95
2023-07-05T22:59:04.442Z,3.30
2023-07-05T23:01:32.403Z,2.17
2023-07-05T23:04:00.271Z,4.85
2023-07-05T23:06:30.214Z,1.73
2023-07-05T23:08:57.817Z,3.20
2023-07-05T23:11:25.523Z,2.03
2023-07-05T23:13:53.512Z,2.65
2023-07-05T23:16:21.520Z,2.92
2023-07-05T23:18:49.722Z,2.65
2023-07-05T23:21:19.892Z,1.75
2023-07-05T23:23:51.158Z,2.53
2023-07-05T23:26:19.826Z,2.00
2023-07-05T23:28:48.614Z,5.53
2023-07-05T23:31:22.415Z,4.03
2023-07-05T23:33:50.411Z,5.32
2023-07-05T23:36:19.170Z,1.65
2023-07-05T23:38:46.820Z,2.17
2023-07-05T23:41:16.367Z,2.70
2023-07-05T23:43:44.007Z,2.03
2023-07-05T23:46:11.848Z,2.72
2023-07-05T23:48:39.968Z,4.00
2023-07-05T23:51:08.532Z,2.10
2023-07-05T23:53:36.547Z,2.47
2023-07-05T23:56:04.360Z,2.50
2023-07-05T23:58:33.659Z,2.40
